Time;durP1;ratioP1;P1;durP2;ratioP2;P2;SDS_P1;SDS_P2;PMS_P1;PMS_P2;Temp;Humidity;BMP_temperature;BMP_pressure;BME280_temperature;BME280_humidity;BME280_pressure;Samples;Min_cycle;Max_cycle;Signal;HPM_P1;HPM_P2
2021/12/05 17:31:04;;;;;;;15.00;11.67;;;;;;;6.35;70.26;99411.59;5079358;27;20597;-64
2021/12/05 17:33:33;;;;;;;13.73;10.27;;;;;;;6.26;70.28;99416.84;5063557;28;20501;-63
2021/12/05 17:36:14;;;;;;;18.50;11.80;;;;;;;6.18;70.34;99425.47;5063978;28;20485;-63
2021/12/05 17:38:41;;;;;;;17.50;10.00;;;;;;;6.15;70.64;99421.28;5063810;28;20455;-64
2021/12/05 17:41:08;;;;;;;15.27;10.87;;;;;;;6.24;70.84;99426.78;5070883;28;20498;-64
2021/12/05 17:43:34;;;;;;;16.87;9.97;;;;;;;5.99;70.39;99432.38;5062098;28;20484;-64
2021/12/05 17:46:03;;;;;;;12.83;10.00;;;;;;;5.88;70.77;99432.41;5067258;28;21103;-64
2021/12/05 17:48:30;;;;;;;15.60;10.50;;;;;;;5.88;71.04;99439.53;5060725;28;20449;-64
2021/12/05 17:50:56;;;;;;;14.43;10.37;;;;;;;5.94;71.23;99439.84;5059790;28;20559;-63
2021/12/05 17:53:29;;;;;;;14.53;10.43;;;;;;;6.01;72.13;99451.66;5071560;28;20445;-64
2021/12/05 17:56:01;;;;;;;41.07;24.27;;;;;;;5.91;71.95;99448.06;5072978;28;20483;-64
2021/12/05 17:58:40;;;;;;;22.60;15.73;;;;;;;5.81;72.68;99447.16;5073662;28;20444;-63
2021/12/05 18:03:55;;;;;;;17.13;11.90;;;;;;;5.69;72.92;99443.72;5073295;28;20522;-64
2021/12/05 18:06:22;;;;;;;18.87;13.83;;;;;;;5.61;73.28;99452.34;5073644;28;20491;-64
2021/12/05 18:08:49;;;;;;;24.87;11.30;;;;;;;5.61;73.17;99452.34;5070655;28;20444;-64
2021/12/05 18:11:21;;;;;;;15.13;9.50;;;;;;;5.51;73.20;99456.72;5059616;28;20465;-63
2021/12/05 18:13:51;;;;;;;17.20;10.10;;;;;;;5.57;73.24;99461.53;5054613;28;21082;-64
2021/12/05 18:16:23;;;;;;;14.10;9.07;;;;;;;5.57;72.73;99458.00;5058445;28;20492;-64
2021/12/05 18:18:51;;;;;;;22.43;11.10;;;;;;;5.66;72.68;99460.75;5045671;28;20457;-64
2021/12/05 18:21:19;;;;;;;17.60;10.73;;;;;;;5.69;72.61;99464.94;5063627;28;20490;-64
2021/12/05 18:23:47;;;;;;;21.57;13.30;;;;;;;5.91;72.80;99469.28;5073901;28;20472;-65
2021/12/05 18:26:14;;;;;;;19.10;12.47;;;;;;;5.94;72.79;99477.00;5073736;28;20491;-63
2021/12/05 18:28:41;;;;;;;26.97;14.50;;;;;;;6.01;72.47;99483.50;5073255;28;20512;-65
2021/12/05 18:31:10;;;;;;;15.83;12.23;;;;;;;5.99;72.72;99485.44;5072748;28;20510;-66
2021/12/05 18:33:38;;;;;;;20.73;13.63;;;;;;;6.00;72.66;99488.91;5073695;28;20523;-67
2021/12/05 18:36:06;;;;;;;19.47;12.27;;;;;;;5.91;72.97;99489.69;5070043;28;20472;-65
2021/12/05 18:38:33;;;;;;;21.17;12.80;;;;;;;5.86;73.32;99487.41;5072261;28;20448;-65
2021/12/05 18:41:06;;;;;;;21.17;12.67;;;;;;;5.86;73.37;99498.00;5064957;28;20512;-65
2021/12/05 18:43:33;;;;;;;17.83;12.10;;;;;;;5.84;73.42;99492.00;5060368;28;20448;-66
2021/12/05 18:46:01;;;;;;;16.17;12.10;;;;;;;5.86;73.28;99508.63;5053151;28;20537;-65
2021/12/05 18:48:27;;;;;;;25.10;13.80;;;;;;;5.80;73.26;99509.16;5059739;28;20850;-66
2021/12/05 18:50:55;;;;;;;20.43;12.23;;;;;;;5.75;73.49;99512.19;5059036;28;20476;-65
2021/12/05 18:53:22;;;;;;;27.63;16.17;;;;;;;5.80;73.53;99511.81;5059784;28;20521;-65
2021/12/05 18:55:51;;;;;;;20.53;13.47;;;;;;;5.80;73.90;99519.78;5059956;28;21312;-65
2021/12/05 18:58:22;;;;;;;21.67;13.20;;;;;;;5.94;73.21;99522.09;5060086;28;20445;-67
2021/12/05 19:06:29;;;;;;;18.73;12.57;;;;;;;5.89;73.55;99529.59;5057717;28;20513;-66
2021/12/05 19:09:17;;;;;;;17.00;12.70;;;;;;;5.91;73.51;99532.97;5059629;28;20471;-66
2021/12/05 19:11:44;;;;;;;19.00;10.87;;;;;;;5.91;73.23;99546.22;5058281;28;20476;-67
2021/12/05 19:14:13;;;;;;;19.77;11.77;;;;;;;5.92;73.23;99532.00;5059528;28;20488;-66
2021/12/05 19:16:39;;;;;;;15.47;11.13;;;;;;;5.91;73.63;99548.88;5057955;28;20930;-66
2021/12/05 19:19:08;;;;;;;18.33;12.10;;;;;;;5.95;73.49;99537.03;5059290;28;20477;-65
2021/12/05 19:21:38;;;;;;;18.10;10.77;;;;;;;5.97;73.52;99542.25;5059701;28;20522;-67
2021/12/05 19:24:06;;;;;;;18.00;11.57;;;;;;;5.93;73.48;99549.59;5058693;28;20488;-67
2021/12/05 19:26:33;;;;;;;15.73;9.83;;;;;;;5.89;73.64;99545.53;5053421;28;20518;-67
2021/12/05 19:29:00;;;;;;;15.73;11.27;;;;;;;5.83;74.08;99551.31;5056937;28;20484;-67
2021/12/05 19:31:28;;;;;;;12.10;10.03;;;;;;;5.89;74.09;99561.44;5057330;28;20480;-66
2021/12/05 19:33:55;;;;;;;12.37;10.30;;;;;;;5.96;73.79;99554.66;5057201;28;20473;-66
2021/12/05 19:36:25;;;;;;;14.47;11.47;;;;;;;5.93;73.74;99562.84;5057435;28;21006;-66
2021/12/05 19:38:55;;;;;;;15.00;10.50;;;;;;;5.83;73.72;99559.28;5056363;28;20437;-66
2021/12/05 19:41:23;;;;;;;14.40;10.50;;;;;;;5.82;73.70;99565.56;5057799;28;20477;-66
2021/12/05 19:43:50;;;;;;;13.83;9.50;;;;;;;5.80;73.66;99568.34;5057093;28;20530;-66
2021/12/05 19:46:18;;;;;;;14.10;11.13;;;;;;;5.86;73.36;99566.97;5057092;28;20484;-66
2021/12/05 19:48:46;;;;;;;15.53;11.90;;;;;;;5.87;73.21;99568.69;5056622;28;20472;-66
2021/12/05 19:51:14;;;;;;;14.83;11.10;;;;;;;5.81;73.66;99567.34;5056692;28;20501;-66
2021/12/05 19:53:43;;;;;;;14.47;12.43;;;;;;;5.80;73.90;99578.97;5056603;28;20860;-67
2021/12/05 19:56:13;;;;;;;17.10;11.60;;;;;;;5.74;74.26;99581.25;5057403;28;20552;-67
2021/12/05 19:58:40;;;;;;;14.50;12.00;;;;;;;5.85;74.10;99575.94;5057035;28;20445;-67
2021/12/05 20:01:07;;;;;;;17.27;11.43;;;;;;;5.86;73.70;99582.91;5051998;28;20492;-66
2021/12/05 20:03:35;;;;;;;16.10;10.80;;;;;;;5.83;73.98;99589.31;5058568;28;20457;-66
2021/12/05 20:06:01;;;;;;;15.80;12.37;;;;;;;5.76;74.09;99590.75;5057369;28;21000;-66
2021/12/05 20:08:29;;;;;;;14.73;11.87;;;;;;;5.72;74.46;99583.22;5058239;28;20859;-66
2021/12/05 20:10:59;;;;;;;18.00;12.50;;;;;;;5.77;74.44;99587.16;5058424;28;20477;-66
2021/12/05 20:13:27;;;;;;;15.80;10.90;;;;;;;5.81;74.11;99591.22;5059094;28;20515;-66
2021/12/05 20:15:55;;;;;;;17.63;13.30;;;;;;;5.72;74.10;99593.81;5058759;28;20503;-66
2021/12/05 20:18:22;;;;;;;29.47;18.43;;;;;;;5.55;74.37;99593.38;5059229;28;20468;-66
2021/12/05 20:20:53;;;;;;;23.83;16.20;;;;;;;5.53;74.59;99597.13;5059079;28;20515;-66
2021/12/05 20:23:21;;;;;;;20.07;14.60;;;;;;;5.69;74.46;99608.16;5058590;28;20452;-66
2021/12/05 20:25:48;;;;;;;25.00;14.93;;;;;;;5.77;74.15;99608.38;5058531;28;20503;-66
2021/12/05 20:28:15;;;;;;;19.23;13.50;;;;;;;5.69;74.34;99612.63;5057770;28;20445;-66
2021/12/05 20:30:43;;;;;;;19.73;14.10;;;;;;;5.68;74.63;99608.28;5056573;28;21063;-66
2021/12/05 20:33:11;;;;;;;21.13;15.23;;;;;;;5.59;74.70;99618.69;5058849;28;20518;-66
2021/12/05 20:35:39;;;;;;;21.63;15.10;;;;;;;5.62;74.72;99621.09;5049308;28;20491;-66
2021/12/05 20:38:08;;;;;;;19.50;14.00;;;;;;;5.57;74.84;99617.97;5059453;28;20431;-66
2021/12/05 20:40:38;;;;;;;20.90;14.87;;;;;;;5.62;74.99;99623.75;5059237;28;20475;-66
2021/12/05 20:43:06;;;;;;;22.83;14.77;;;;;;;5.65;74.65;99631.44;5058479;28;20872;-67
2021/12/05 20:45:33;;;;;;;25.03;15.60;;;;;;;5.57;74.88;99639.19;5059212;28;20456;-67
2021/12/05 20:48:02;;;;;;;18.13;14.20;;;;;;;5.60;74.95;99644.22;5058297;28;20440;-66
2021/12/05 20:50:30;;;;;;;24.13;15.43;;;;;;;5.60;74.99;99656.66;5057547;28;20999;-67
2021/12/05 20:52:57;;;;;;;21.80;14.13;;;;;;;5.63;75.05;99653.75;5059644;28;20445;-67
2021/12/05 20:55:24;;;;;;;20.33;13.87;;;;;;;5.63;75.03;99659.88;5058658;28;20516;-66
2021/12/05 20:57:52;;;;;;;17.03;13.80;;;;;;;5.62;75.09;99660.88;5059318;28;20516;-66
2021/12/05 21:00:20;;;;;;;19.23;14.00;;;;;;;5.71;74.72;99663.72;5057280;28;20515;-65
2021/12/05 21:02:47;;;;;;;22.60;14.53;;;;;;;5.80;74.37;99663.84;5059161;28;21023;-65
2021/12/05 21:05:17;;;;;;;19.83;12.70;;;;;;;5.75;74.26;99667.84;5056775;28;20539;-66
2021/12/05 21:07:48;;;;;;;18.80;12.90;;;;;;;5.70;74.49;99668.19;5059446;28;20425;-65
2021/12/05 21:10:17;;;;;;;17.57;13.67;;;;;;;5.65;75.04;99668.56;5058091;28;20448;-66
2021/12/05 21:12:44;;;;;;;19.13;14.13;;;;;;;5.73;74.95;99669.75;5056113;28;20866;-68
2021/12/05 21:15:11;;;;;;;16.70;12.63;;;;;;;5.69;74.82;99673.63;5046751;28;20437;-67
2021/12/05 21:17:38;;;;;;;19.10;12.83;;;;;;;5.65;75.26;99675.69;5045344;28;20446;-67
2021/12/05 21:20:05;;;;;;;18.00;13.67;;;;;;;5.55;75.79;99675.56;5047479;28;20580;-69
2021/12/05 21:22:34;;;;;;;16.73;13.90;;;;;;;5.59;75.83;99689.41;5039303;28;20485;-66
2021/12/05 21:25:01;;;;;;;19.30;13.30;;;;;;;5.61;75.61;99695.47;5049448;28;21036;-67
2021/12/05 21:27:27;;;;;;;18.70;12.90;;;;;;;5.55;75.61;99694.13;5058909;28;20469;-67
2021/12/05 21:29:54;;;;;;;14.50;12.67;;;;;;;5.52;75.74;99694.38;5043198;28;20504;-66
2021/12/05 21:32:21;;;;;;;18.67;15.17;;;;;;;5.57;75.54;99699.31;5058176;28;20476;-66
2021/12/05 21:34:48;;;;;;;16.70;14.83;;;;;;;5.57;75.60;99697.53;5057873;28;20448;-70
2021/12/05 21:37:15;;;;;;;27.27;16.87;;;;;;;5.58;75.58;99703.66;5051804;28;20482;-67
2021/12/05 21:39:43;;;;;;;17.77;14.30;;;;;;;5.61;75.59;99706.91;5043299;28;20517;-67
2021/12/05 21:42:12;;;;;;;22.63;13.30;;;;;;;5.53;75.02;99704.00;5056872;28;20499;-67
2021/12/05 21:44:38;;;;;;;20.80;14.53;;;;;;;5.51;75.63;99713.91;5050750;28;20454;-66
2021/12/05 21:47:05;;;;;;;20.27;14.17;;;;;;;5.64;75.50;99716.41;5040634;28;20482;-66
2021/12/05 21:49:32;;;;;;;19.00;14.17;;;;;;;5.52;75.78;99714.75;5043390;28;20874;-66
2021/12/05 21:51:58;;;;;;;18.83;14.70;;;;;;;5.59;76.17;99714.16;5037779;28;20517;-66
2021/12/05 21:54:25;;;;;;;19.93;15.70;;;;;;;5.56;76.04;99710.91;5039094;28;20490;-66
2021/12/05 21:56:53;;;;;;;21.03;16.80;;;;;;;5.51;76.08;99724.50;5057985;28;20851;-66
2021/12/05 21:59:20;;;;;;;21.40;17.03;;;;;;;5.51;76.32;99726.31;5047516;28;20517;-66
2021/12/05 22:01:48;;;;;;;22.10;15.40;;;;;;;5.38;76.41;99723.78;5038840;28;20482;-66
2021/12/05 22:04:15;;;;;;;21.47;14.10;;;;;;;5.18;76.37;99723.53;5049479;28;20573;-66
2021/12/05 22:06:42;;;;;;;18.00;13.23;;;;;;;5.23;76.25;99726.66;5037864;28;20976;-66
2021/12/05 22:09:08;;;;;;;17.83;12.20;;;;;;;5.16;76.43;99724.63;5039209;28;20450;-67
2021/12/05 22:11:35;;;;;;;16.37;12.87;;;;;;;5.04;76.31;99729.06;5043626;28;20579;-66
2021/12/05 22:14:03;;;;;;;18.07;12.77;;;;;;;5.08;75.90;99730.50;5041067;28;20489;-66
2021/12/05 22:16:30;;;;;;;17.37;12.30;;;;;;;5.21;75.89;99733.06;5039503;28;20550;-67
2021/12/05 22:18:58;;;;;;;17.20;11.43;;;;;;;5.06;75.78;99732.44;5041686;28;20457;-66
2021/12/05 22:21:32;;;;;;;15.57;11.30;;;;;;;5.16;75.65;99732.59;5055016;28;21014;-65
2021/12/05 22:24:00;;;;;;;20.90;12.20;;;;;;;5.09;75.78;99733.03;5043425;28;20492;-66
2021/12/05 22:26:28;;;;;;;19.40;12.60;;;;;;;5.21;75.87;99738.38;5050295;28;20476;-65
2021/12/05 22:28:57;;;;;;;17.00;11.00;;;;;;;5.21;75.39;99743.66;5062062;28;20488;-65
2021/12/05 22:31:25;;;;;;;13.03;11.03;;;;;;;5.27;75.50;99748.47;5054190;28;20481;-66
2021/12/05 22:33:53;;;;;;;13.47;10.23;;;;;;;5.19;75.67;99742.91;5045647;28;20958;-66
2021/12/05 22:36:20;;;;;;;14.47;10.53;;;;;;;5.24;75.61;99746.94;5055007;28;20508;-66
2021/12/05 22:38:47;;;;;;;15.70;10.20;;;;;;;5.27;75.48;99749.31;5060452;28;20442;-66
2021/12/05 22:41:16;;;;;;;16.03;10.77;;;;;;;5.27;75.63;99749.31;5051347;28;20481;-65
2021/12/05 22:43:44;;;;;;;12.43;9.77;;;;;;;5.23;75.67;99752.34;5030051;28;20451;-65
2021/12/05 22:46:12;;;;;;;12.93;10.70;;;;;;;5.25;75.67;99767.16;5044200;28;20497;-65
2021/12/05 22:48:41;;;;;;;11.90;10.03;;;;;;;5.35;75.28;99761.16;5043093;28;20433;-65
2021/12/05 22:51:08;;;;;;;18.43;11.80;;;;;;;5.38;75.03;99774.16;5048069;28;20501;-65
2021/12/05 22:53:35;;;;;;;22.87;11.80;;;;;;;5.31;75.49;99771.13;5045023;28;20484;-65
2021/12/05 22:56:01;;;;;;;16.60;12.50;;;;;;;5.32;75.27;99774.63;5051492;28;20559;-65
2021/12/05 22:58:29;;;;;;;13.10;10.57;;;;;;;5.34;75.20;99780.66;5063546;28;20417;-65
2021/12/05 23:00:59;;;;;;;13.50;11.27;;;;;;;5.31;75.34;99789.66;5054417;28;20484;-65
2021/12/05 23:03:28;;;;;;;18.97;11.70;;;;;;;5.36;75.19;99787.50;5062851;28;20512;-65
2021/12/05 23:05:57;;;;;;;13.60;10.93;;;;;;;5.30;74.84;99795.13;5058412;28;20476;-65
2021/12/05 23:08:24;;;;;;;14.93;10.80;;;;;;;5.16;75.23;99791.72;5062910;28;20440;-65
2021/12/05 23:10:53;;;;;;;16.37;11.13;;;;;;;5.03;75.91;99793.59;5062050;28;20472;-65
2021/12/05 23:13:20;;;;;;;15.53;11.53;;;;;;;5.01;76.13;99790.22;5060745;28;20448;-66
2021/12/05 23:15:48;;;;;;;12.87;11.13;;;;;;;5.06;76.18;99794.22;5062158;28;20473;-68
2021/12/05 23:18:16;;;;;;;22.73;12.30;;;;;;;5.13;76.11;99799.06;5062771;28;20993;-67
2021/12/05 23:20:44;;;;;;;15.23;11.40;;;;;;;5.24;75.70;99802.59;5061675;28;20516;-67
2021/12/05 23:23:12;;;;;;;14.97;11.53;;;;;;;5.28;75.57;99800.53;5062933;28;20465;-67
2021/12/05 23:25:39;;;;;;;20.70;11.30;;;;;;;5.30;75.62;99797.78;5062336;28;20496;-68
2021/12/05 23:28:06;;;;;;;13.47;11.80;;;;;;;5.26;75.54;99797.16;5062537;28;20483;-67
2021/12/05 23:30:34;;;;;;;13.90;11.60;;;;;;;4.84;76.79;99802.94;5061809;28;20499;-68
2021/12/05 23:33:02;;;;;;;14.20;11.30;;;;;;;4.92;76.76;99809.47;5062042;28;20468;-67
2021/12/05 23:35:29;;;;;;;18.73;11.53;;;;;;;4.92;77.02;99809.47;5061329;28;21026;-67
2021/12/05 23:37:59;;;;;;;21.63;12.40;;;;;;;4.97;76.80;99807.31;5063015;28;20441;-67
2021/12/05 23:40:28;;;;;;;16.20;12.10;;;;;;;5.01;76.68;99808.78;5062149;28;20959;-67
2021/12/05 23:42:55;;;;;;;19.03;13.03;;;;;;;4.99;76.83;99800.94;5062638;28;20853;-67
2021/12/05 23:45:22;;;;;;;15.43;11.67;;;;;;;5.11;76.49;99799.16;5061975;28;20477;-68
2021/12/05 23:47:49;;;;;;;20.30;13.30;;;;;;;5.22;75.98;99806.28;5062707;28;20445;-66
2021/12/05 23:50:17;;;;;;;15.47;11.43;;;;;;;5.27;75.84;99809.44;5060928;28;20487;-67
2021/12/05 23:52:44;;;;;;;17.10;13.60;;;;;;;5.19;76.18;99810.03;5062619;28;20437;-67
2021/12/05 23:55:14;;;;;;;20.43;12.50;;;;;;;5.04;76.16;99817.34;5061175;28;20457;-65
2021/12/05 23:57:42;;;;;;;16.70;11.80;;;;;;;5.03;76.75;99812.16;5062410;28;20441;-65
